Time;durP1;ratioP1;P1;durP2;ratioP2;P2;SDS_P1;SDS_P2;PMS_P1;PMS_P2;Temp;Humidity;BMP_temperature;BMP_pressure;BME280_temperature;BME280_humidity;BME280_pressure;Samples;Min_cycle;Max_cycle;Signal;HPM_P1;HPM_P2
2024/01/10 00:01:44;;;;;;;31.58;29.67;;;;;;;;;;4988734;28;20224;-42
2024/01/10 00:04:10;;;;;;;40.15;37.80;;;;;;;;;;4991843;28;20746;-43
2024/01/10 00:06:36;;;;;;;33.87;31.73;;;;;;;;;;4985974;28;20184;-42
2024/01/10 00:09:02;;;;;;;38.95;36.50;;;;;;;;;;4989586;28;20474;-43
2024/01/10 00:11:28;;;;;;;44.28;41.55;;;;;;;;;;4984433;28;20564;-42
2024/01/10 00:13:59;;;;;;;40.13;37.73;;;;;;;;;;4991647;28;20204;-43
2024/01/10 00:16:26;;;;;;;39.85;37.47;;;;;;;;;;4992046;28;20776;-43
2024/01/10 00:18:52;;;;;;;41.90;39.42;;;;;;;;;;4990195;28;20200;-43
2024/01/10 00:21:18;;;;;;;45.90;42.83;;;;;;;;;;4992046;28;20180;-44
2024/01/10 00:23:44;;;;;;;50.75;47.45;;;;;;;;;;4991641;28;20231;-42
2024/01/10 00:26:10;;;;;;;43.95;41.22;;;;;;;;;;4986200;28;20193;-42
2024/01/10 00:28:36;;;;;;;43.42;40.78;;;;;;;;;;4994040;28;20255;-42
2024/01/10 00:31:02;;;;;;;43.65;41.00;;;;;;;;;;4995785;28;20667;-43
2024/01/10 00:33:28;;;;;;;47.78;44.75;;;;;;;;;;4998983;28;20336;-43
2024/01/10 00:35:54;;;;;;;49.13;46.08;;;;;;;;;;4991131;28;20189;-43
2024/01/10 00:38:20;;;;;;;43.73;41.10;;;;;;;;;;4993145;28;20209;-42
2024/01/10 00:40:46;;;;;;;42.78;40.20;;;;;;;;;;4991437;28;20412;-43
2024/01/10 00:43:12;;;;;;;44.70;41.97;;;;;;;;;;4992223;28;20209;-43
2024/01/10 00:45:38;;;;;;;47.47;44.40;;;;;;;;;;4991898;28;20228;-43
2024/01/10 00:48:04;;;;;;;45.03;42.33;;;;;;;;;;4992656;28;20475;-43
2024/01/10 00:50:30;;;;;;;43.50;41.00;;;;;;;;;;4992070;28;21064;-43
2024/01/10 00:52:56;;;;;;;44.77;42.17;;;;;;;;;;4990919;28;20291;-43
2024/01/10 00:55:22;;;;;;;40.27;37.87;;;;;;;;;;4988368;28;20427;-42
2024/01/10 00:57:48;;;;;;;42.57;40.07;;;;;;;;;;4995829;28;20981;-42
2024/01/10 01:00:14;;;;;;;43.17;40.47;;;;;;;;;;4986408;28;20916;-42
2024/01/10 01:02:40;;;;;;;50.45;47.00;;;;;;;;;;4987829;28;20448;-42
2024/01/10 01:05:07;;;;;;;43.80;41.10;;;;;;;;;;4992782;28;20596;-42
2024/01/10 01:07:33;;;;;;;48.08;45.15;;;;;;;;;;4990327;28;20173;-42
2024/01/10 01:09:59;;;;;;;42.67;40.08;;;;;;;;;;4989257;28;20189;-42
2024/01/10 01:12:25;;;;;;;41.88;39.28;;;;;;;;;;4992765;28;20185;-43
2024/01/10 01:14:51;;;;;;;43.83;41.13;;;;;;;;;;4991321;28;20216;-42
2024/01/10 01:17:17;;;;;;;45.37;42.60;;;;;;;;;;4989018;28;20303;-42
2024/01/10 01:19:43;;;;;;;44.30;41.60;;;;;;;;;;4991848;28;20919;-42
2024/01/10 01:22:09;;;;;;;43.70;41.07;;;;;;;;;;4986156;28;20427;-42
2024/01/10 01:24:35;;;;;;;42.70;40.17;;;;;;;;;;4990794;28;20448;-43
2024/01/10 01:27:01;;;;;;;41.42;38.88;;;;;;;;;;4991538;28;20774;-43
2024/01/10 01:29:28;;;;;;;46.50;43.60;;;;;;;;;;4991608;28;20224;-43
2024/01/10 01:31:54;;;;;;;49.15;46.13;;;;;;;;;;4988868;28;20605;-42
2024/01/10 01:34:20;;;;;;;47.07;44.17;;;;;;;;;;4990739;28;20629;-42
2024/01/10 01:36:46;;;;;;;45.30;40.30;;;;;;;;;;4991733;28;20766;-42
2024/01/10 01:39:13;;;;;;;36.07;32.57;;;;;;;;;;4991488;28;20492;-42
2024/01/10 01:41:39;;;;;;;39.35;35.72;;;;;;;;;;4993302;28;20756;-43
2024/01/10 01:44:05;;;;;;;46.65;43.35;;;;;;;;;;4994195;28;20622;-42
2024/01/10 01:46:32;;;;;;;31.63;29.43;;;;;;;;;;4994390;28;20165;-42
2024/01/10 01:48:59;;;;;;;60.08;53.95;;;;;;;;;;4995052;28;20420;-42
2024/01/10 01:51:27;;;;;;;37.55;35.20;;;;;;;;;;4994832;28;20192;-43
2024/01/10 01:53:53;;;;;;;35.40;33.30;;;;;;;;;;4994067;28;20209;-43
2024/01/10 01:56:19;;;;;;;39.80;37.35;;;;;;;;;;4994784;28;20173;-43
2024/01/10 01:58:46;;;;;;;33.85;31.85;;;;;;;;;;4994811;28;20717;-43
2024/01/10 02:01:13;;;;;;;32.88;30.77;;;;;;;;;;4993720;28;20224;-42
2024/01/10 02:03:39;;;;;;;32.58;30.52;;;;;;;;;;4993435;28;20198;-42
2024/01/10 02:06:05;;;;;;;33.55;31.50;;;;;;;;;;5002908;28;20553;-42
2024/01/10 02:08:33;;;;;;;34.00;31.93;;;;;;;;;;5009099;28;20259;-42
2024/01/10 02:11:20;;;;;;;38.50;36.08;;;;;;;;;;4994937;28;20416;-42
2024/01/10 02:13:46;;;;;;;36.70;34.50;;;;;;;;;;5013422;28;20196;-42
2024/01/10 02:16:12;;;;;;;37.73;35.43;;;;;;;;;;4995019;28;20648;-43
2024/01/10 02:18:38;;;;;;;36.37;34.20;;;;;;;;;;5009500;28;20963;-42
2024/01/10 02:21:04;;;;;;;35.15;33.05;;;;;;;;;;5003179;28;20416;-42
2024/01/10 02:23:30;;;;;;;37.40;35.03;;;;;;;;;;5000488;28;20571;-42
2024/01/10 02:25:56;;;;;;;37.42;35.13;;;;;;;;;;5010734;28;20200;-42
2024/01/10 02:28:23;;;;;;;34.60;32.50;;;;;;;;;;4994500;28;20227;-43
2024/01/10 02:30:50;;;;;;;35.83;33.63;;;;;;;;;;5013022;28;20817;-42
2024/01/10 02:33:16;;;;;;;37.15;34.85;;;;;;;;;;4998363;28;20259;-42
2024/01/10 02:35:42;;;;;;;33.77;31.67;;;;;;;;;;5003549;28;20188;-43
2024/01/10 02:38:08;;;;;;;37.60;35.37;;;;;;;;;;5007063;28;20459;-42
2024/01/10 02:40:34;;;;;;;38.43;36.13;;;;;;;;;;4996851;28;20420;-42
2024/01/10 02:43:00;;;;;;;38.33;36.03;;;;;;;;;;5013256;28;20423;-42
2024/01/10 02:45:26;;;;;;;40.65;38.10;;;;;;;;;;4995311;28;20412;-42
2024/01/10 02:47:51;;;;;;;42.22;39.63;;;;;;;;;;4992790;28;20189;-41
2024/01/10 02:50:18;;;;;;;40.58;38.08;;;;;;;;;;4993912;28;20180;-42
2024/01/10 02:52:43;;;;;;;46.83;43.67;;;;;;;;;;4991983;28;20184;-42
2024/01/10 02:55:09;;;;;;;44.53;41.93;;;;;;;;;;4991820;28;20173;-43
2024/01/10 02:57:35;;;;;;;42.63;40.05;;;;;;;;;;4989282;28;20416;-42
2024/01/10 03:00:04;;;;;;;39.60;37.27;;;;;;;;;;4993404;28;20269;-43
2024/01/10 03:02:30;;;;;;;48.03;44.92;;;;;;;;;;4991416;28;20423;-43
2024/01/10 03:04:56;;;;;;;40.37;38.00;;;;;;;;;;4983758;28;20574;-42
2024/01/10 03:07:24;;;;;;;42.33;39.77;;;;;;;;;;4987399;28;20840;-42
2024/01/10 03:09:50;;;;;;;44.40;41.70;;;;;;;;;;4993256;28;20547;-42
2024/01/10 03:12:16;;;;;;;42.40;39.87;;;;;;;;;;4993755;28;20653;-42
2024/01/10 03:14:42;;;;;;;40.70;38.22;;;;;;;;;;4975350;28;20429;-42
2024/01/10 03:17:08;;;;;;;42.77;40.20;;;;;;;;;;4987590;28;20637;-42
2024/01/10 03:19:34;;;;;;;40.67;38.10;;;;;;;;;;4983731;28;20464;-42
2024/01/10 03:22:00;;;;;;;41.80;39.20;;;;;;;;;;4979449;28;20405;-42
2024/01/10 03:24:27;;;;;;;41.37;38.87;;;;;;;;;;4991311;28;20191;-42
2024/01/10 03:26:53;;;;;;;42.38;39.72;;;;;;;;;;4976340;28;20432;-42
2024/01/10 03:29:19;;;;;;;42.88;40.22;;;;;;;;;;4992590;28;20173;-42
2024/01/10 03:31:45;;;;;;;38.40;36.07;;;;;;;;;;4992772;28;20540;-42
2024/01/10 03:34:11;;;;;;;45.07;42.53;;;;;;;;;;4986488;28;20842;-42
2024/01/10 03:36:36;;;;;;;40.53;38.10;;;;;;;;;;4986892;28;20488;-42
2024/01/10 03:39:02;;;;;;;47.27;44.27;;;;;;;;;;4989137;28;20212;-42
2024/01/10 03:41:28;;;;;;;41.80;39.35;;;;;;;;;;4993046;28;20455;-42
2024/01/10 03:43:54;;;;;;;38.43;36.20;;;;;;;;;;4992023;28;20200;-42
2024/01/10 03:46:20;;;;;;;41.87;39.30;;;;;;;;;;4996412;28;20757;-41
2024/01/10 03:48:49;;;;;;;38.35;36.03;;;;;;;;;;4992492;28;20426;-41
2024/01/10 03:51:16;;;;;;;36.88;34.63;;;;;;;;;;4992492;28;20180;-42
2024/01/10 03:53:42;;;;;;;44.80;41.90;;;;;;;;;;4991681;28;20196;-42
2024/01/10 03:56:08;;;;;;;43.92;41.13;;;;;;;;;;4991605;28;20185;-42
2024/01/10 03:58:34;;;;;;;44.03;41.28;;;;;;;;;;4988339;28;20201;-42
2024/01/10 04:01:04;;;;;;;45.13;42.27;;;;;;;;;;4992545;28;20555;-42
2024/01/10 04:03:30;;;;;;;42.08;39.50;;;;;;;;;;4985016;28;20436;-43
2024/01/10 04:05:56;;;;;;;43.77;41.10;;;;;;;;;;4992486;28;20185;-42
2024/01/10 04:08:22;;;;;;;46.67;43.63;;;;;;;;;;4992146;28;20439;-42
2024/01/10 04:10:48;;;;;;;42.73;40.17;;;;;;;;;;4992446;28;20740;-41
2024/01/10 04:13:14;;;;;;;43.13;40.43;;;;;;;;;;4991447;28;20838;-41
2024/01/10 04:15:40;;;;;;;44.40;41.57;;;;;;;;;;4986771;28;20507;-42
2024/01/10 04:18:06;;;;;;;46.63;43.60;;;;;;;;;;4992046;28;20472;-42
2024/01/10 04:20:32;;;;;;;45.13;42.30;;;;;;;;;;4992350;28;20416;-42
2024/01/10 04:22:58;;;;;;;44.57;41.80;;;;;;;;;;4991316;28;20593;-42
2024/01/10 04:25:24;;;;;;;43.87;41.07;;;;;;;;;;4992034;28;20530;-42
2024/01/10 04:27:50;;;;;;;45.65;42.65;;;;;;;;;;4991896;28;20439;-41
2024/01/10 04:30:16;;;;;;;45.80;42.85;;;;;;;;;;4991755;28;20568;-42
2024/01/10 04:32:42;;;;;;;51.03;47.33;;;;;;;;;;4991624;28;20633;-41
2024/01/10 04:35:09;;;;;;;48.25;44.95;;;;;;;;;;4991830;28;20177;-42
2024/01/10 04:37:35;;;;;;;47.38;44.22;;;;;;;;;;4991781;28;20173;-43
2024/01/10 04:40:01;;;;;;;48.40;45.17;;;;;;;;;;4992080;28;20180;-42
2024/01/10 04:42:27;;;;;;;48.65;45.35;;;;;;;;;;4991188;28;20571;-43
2024/01/10 04:44:53;;;;;;;50.95;47.47;;;;;;;;;;4991661;28;20280;-43
2024/01/10 04:47:19;;;;;;;49.03;45.73;;;;;;;;;;4991633;28;20188;-42
2024/01/10 04:49:45;;;;;;;50.97;47.50;;;;;;;;;;4991312;28;20460;-41
2024/01/10 04:52:12;;;;;;;39.20;36.40;;;;;;;;;;4992014;28;20427;-41
2024/01/10 04:54:38;;;;;;;24.75;22.67;;;;;;;;;;4990849;28;20742;-42
2024/01/10 04:57:04;;;;;;;53.97;49.88;;;;;;;;;;4991888;28;20180;-42
2024/01/10 04:59:30;;;;;;;51.72;47.75;;;;;;;;;;4991654;28;20204;-42
2024/01/10 05:01:56;;;;;;;53.17;49.10;;;;;;;;;;4991405;28;20183;-42
2024/01/10 05:04:22;;;;;;;55.87;51.53;;;;;;;;;;4992208;28;20197;-42
2024/01/10 05:06:48;;;;;;;52.20;48.07;;;;;;;;;;4991948;28;20406;-42
2024/01/10 05:09:14;;;;;;;50.43;46.43;;;;;;;;;;4993290;28;20766;-42
2024/01/10 05:11:40;;;;;;;52.25;48.00;;;;;;;;;;4993911;28;20784;-41
2024/01/10 05:14:06;;;;;;;53.58;49.13;;;;;;;;;;4993163;28;20292;-41
2024/01/10 05:16:32;;;;;;;53.40;48.90;;;;;;;;;;5001590;28;20701;-41
2024/01/10 05:19:03;;;;;;;53.95;49.38;;;;;;;;;;5002880;28;20866;-42
2024/01/10 05:21:29;;;;;;;53.72;49.13;;;;;;;;;;4993398;28;20319;-42
2024/01/10 05:23:55;;;;;;;50.95;47.00;;;;;;;;;;4997109;28;20292;-41
2024/01/10 05:26:21;;;;;;;54.60;50.30;;;;;;;;;;4996455;28;20566;-41
2024/01/10 05:28:47;;;;;;;54.87;50.60;;;;;;;;;;4995241;28;20439;-41
2024/01/10 05:31:13;;;;;;;56.20;51.80;;;;;;;;;;4995455;28;20545;-42
2024/01/10 05:33:39;;;;;;;52.30;48.23;;;;;;;;;;4986110;28;20447;-41
2024/01/10 05:36:05;;;;;;;56.23;51.97;;;;;;;;;;4998555;28;20567;-42
2024/01/10 05:38:31;;;;;;;53.47;49.28;;;;;;;;;;4995363;28;20474;-42
2024/01/10 05:40:57;;;;;;;53.55;49.30;;;;;;;;;;4994268;28;20177;-41
2024/01/10 05:43:23;;;;;;;57.80;53.30;;;;;;;;;;5013420;28;20207;-42
2024/01/10 05:45:49;;;;;;;54.42;50.25;;;;;;;;;;5000015;28;20408;-42
2024/01/10 05:48:17;;;;;;;51.42;47.58;;;;;;;;;;5005578;28;20180;-43
2024/01/10 05:50:43;;;;;;;52.83;48.88;;;;;;;;;;5007797;28;20177;-42
2024/01/10 05:53:10;;;;;;;50.63;46.87;;;;;;;;;;4997113;28;20743;-42
2024/01/10 05:55:36;;;;;;;51.03;47.28;;;;;;;;;;5014682;28;20821;-42
2024/01/10 05:58:02;;;;;;;51.78;47.88;;;;;;;;;;4995823;28;20684;-42
2024/01/10 06:00:28;;;;;;;52.75;48.75;;;;;;;;;;5009418;28;20720;-43
2024/01/10 06:02:55;;;;;;;55.50;51.23;;;;;;;;;;5003463;28;20181;-42
2024/01/10 06:05:21;;;;;;;54.38;50.38;;;;;;;;;;5001030;28;20764;-42
2024/01/10 06:07:47;;;;;;;53.37;49.43;;;;;;;;;;5011765;28;20188;-42
2024/01/10 06:10:15;;;;;;;54.15;50.10;;;;;;;;;;4994866;28;20975;-42
2024/01/10 06:12:41;;;;;;;60.65;55.90;;;;;;;;;;4994386;28;20560;-42
2024/01/10 06:15:07;;;;;;;52.33;48.37;;;;;;;;;;4994065;28;20173;-42
2024/01/10 06:17:33;;;;;;;55.88;51.47;;;;;;;;;;4984344;28;20421;-42
2024/01/10 06:19:59;;;;;;;53.90;49.50;;;;;;;;;;4981193;28;20186;-42
2024/01/10 06:22:26;;;;;;;57.88;53.42;;;;;;;;;;4991866;28;20261;-42
2024/01/10 06:24:52;;;;;;;54.55;50.30;;;;;;;;;;4979559;28;20610;-42
2024/01/10 06:27:18;;;;;;;61.40;56.30;;;;;;;;;;4992338;28;20274;-42
2024/01/10 06:29:44;;;;;;;58.38;53.38;;;;;;;;;;4989835;28;20963;-42
2024/01/10 06:32:11;;;;;;;59.38;54.28;;;;;;;;;;4993968;28;20226;-42
2024/01/10 06:34:37;;;;;;;59.45;54.47;;;;;;;;;;4994040;28;20201;-43
2024/01/10 06:37:03;;;;;;;59.38;54.35;;;;;;;;;;4999262;28;20180;-43
2024/01/10 06:39:29;;;;;;;52.55;48.55;;;;;;;;;;4997889;28;20634;-41
2024/01/10 06:41:55;;;;;;;58.77;54.27;;;;;;;;;;4993917;28;20179;-41
2024/01/10 06:44:21;;;;;;;59.38;54.83;;;;;;;;;;4992974;28;20442;-41
2024/01/10 06:46:47;;;;;;;58.60;53.67;;;;;;;;;;4992295;28;20177;-42
2024/01/10 06:49:13;;;;;;;63.47;58.17;;;;;;;;;;4992999;28;20565;-41
2024/01/10 06:51:39;;;;;;;59.28;54.10;;;;;;;;;;4993568;28;20884;-41
2024/01/10 06:54:05;;;;;;;59.20;54.15;;;;;;;;;;4993285;28;20280;-42
2024/01/10 06:56:33;;;;;;;58.90;53.95;;;;;;;;;;4994096;28;20256;-42
2024/01/10 06:59:00;;;;;;;61.90;56.33;;;;;;;;;;4994133;28;20209;-41
2024/01/10 07:01:26;;;;;;;62.00;56.67;;;;;;;;;;4993902;28;20173;-41
2024/01/10 07:03:55;;;;;;;62.15;56.80;;;;;;;;;;4990199;28;20194;-41
2024/01/10 07:06:22;;;;;;;60.95;55.55;;;;;;;;;;4991676;28;20169;-42
2024/01/10 07:08:49;;;;;;;56.97;52.50;;;;;;;;;;4987842;28;20174;-42
2024/01/10 07:11:15;;;;;;;59.60;54.70;;;;;;;;;;4993882;28;20184;-41
2024/01/10 07:13:41;;;;;;;60.92;55.63;;;;;;;;;;4993841;28;20572;-41
2024/01/10 07:16:18;;;;;;;63.30;57.85;;;;;;;;;;4989834;28;20177;-42
2024/01/10 07:18:46;;;;;;;61.80;56.42;;;;;;;;;;4988932;28;20208;-42
2024/01/10 07:21:12;;;;;;;62.22;56.85;;;;;;;;;;4987224;28;20166;-42
2024/01/10 07:23:42;;;;;;;60.97;55.85;;;;;;;;;;4991242;28;20191;-42
2024/01/10 07:26:08;;;;;;;63.33;57.95;;;;;;;;;;4989634;28;20271;-42
2024/01/10 07:28:34;;;;;;;58.92;53.83;;;;;;;;;;4986826;28;20260;-42
2024/01/10 07:31:02;;;;;;;59.83;54.83;;;;;;;;;;4986936;28;20431;-42
2024/01/10 07:33:30;;;;;;;60.83;55.50;;;;;;;;;;4991567;28;20455;-41
2024/01/10 07:35:56;;;;;;;62.22;56.97;;;;;;;;;;4990519;28;20181;-42
2024/01/10 07:38:22;;;;;;;64.15;58.55;;;;;;;;;;4993420;28;20200;-42
2024/01/10 07:40:48;;;;;;;62.80;57.30;;;;;;;;;;4992582;28;20223;-42
2024/01/10 07:43:14;;;;;;;60.73;55.27;;;;;;;;;;4991745;28;20446;-42
2024/01/10 07:45:40;;;;;;;59.13;53.67;;;;;;;;;;4994595;28;20455;-42
2024/01/10 07:48:06;;;;;;;60.05;54.78;;;;;;;;;;4986919;28;20424;-42
2024/01/10 07:50:32;;;;;;;60.75;55.55;;;;;;;;;;4999368;28;20197;-42
2024/01/10 07:52:58;;;;;;;60.33;55.03;;;;;;;;;;4998365;28;20200;-42
2024/01/10 07:55:24;;;;;;;65.13;59.22;;;;;;;;;;4992926;28;20452;-42
2024/01/10 07:57:50;;;;;;;62.27;57.07;;;;;;;;;;4990977;28;20224;-43
2024/01/10 08:00:16;;;;;;;61.40;56.00;;;;;;;;;;4991890;28;20401;-42
2024/01/10 08:02:42;;;;;;;68.53;62.28;;;;;;;;;;4995397;28;20756;-42
2024/01/10 08:05:08;;;;;;;57.73;52.70;;;;;;;;;;4997371;28;20185;-42
2024/01/10 08:07:36;;;;;;;58.25;53.40;;;;;;;;;;4992302;28;20412;-42
2024/01/10 08:10:03;;;;;;;59.65;54.58;;;;;;;;;;4995687;28;20180;-42
2024/01/10 08:12:29;;;;;;;63.20;57.83;;;;;;;;;;4985615;28;20181;-42
2024/01/10 08:14:54;;;;;;;56.00;51.00;;;;;;;;;;4995112;28;20594;-42
2024/01/10 08:17:20;;;;;;;59.03;54.00;;;;;;;;;;4993540;28;20420;-42
2024/01/10 08:19:46;;;;;;;59.38;54.40;;;;;;;;;;4998017;28;20452;-42
2024/01/10 08:22:13;;;;;;;60.50;55.23;;;;;;;;;;4999023;28;20656;-43
2024/01/10 08:24:39;;;;;;;60.00;55.00;;;;;;;;;;4992529;28;20428;-42
2024/01/10 08:27:05;;;;;;;63.20;58.17;;;;;;;;;;4992645;28;20206;-42
2024/01/10 08:29:31;;;;;;;59.13;54.20;;;;;;;;;;4992529;28;20708;-42
2024/01/10 08:31:57;;;;;;;64.15;58.75;;;;;;;;;;4991367;28;20503;-42
2024/01/10 08:34:24;;;;;;;62.63;57.47;;;;;;;;;;4991135;28;20708;-42
2024/01/10 08:36:51;;;;;;;61.05;56.03;;;;;;;;;;4996545;28;20181;-42
2024/01/10 08:39:17;;;;;;;61.08;55.92;;;;;;;;;;4994082;28;20299;-42
2024/01/10 08:41:44;;;;;;;65.03;59.67;;;;;;;;;;4996715;28;20177;-41
2024/01/10 08:44:10;;;;;;;63.17;57.92;;;;;;;;;;4996548;28;20254;-42
2024/01/10 08:46:36;;;;;;;54.85;50.60;;;;;;;;;;4994223;28;20176;-42
2024/01/10 08:49:03;;;;;;;61.17;56.37;;;;;;;;;;4995299;28;20191;-42
2024/01/10 08:51:29;;;;;;;61.13;55.78;;;;;;;;;;5014731;28;20490;-42
2024/01/10 08:53:56;;;;;;;58.93;54.23;;;;;;;;;;4999310;28;20287;-42
2024/01/10 08:56:22;;;;;;;59.35;54.83;;;;;;;;;;4989535;28;20416;-42
2024/01/10 08:58:48;;;;;;;59.95;54.88;;;;;;;;;;5002915;28;20257;-42
2024/01/10 09:01:14;;;;;;;59.40;54.35;;;;;;;;;;5013020;28;20180;-42
2024/01/10 09:03:40;;;;;;;62.23;57.00;;;;;;;;;;4993107;28;20197;-42
2024/01/10 09:06:07;;;;;;;60.70;55.70;;;;;;;;;;4993069;28;20422;-44
2024/01/10 09:08:33;;;;;;;55.78;51.72;;;;;;;;;;4994436;28;21049;-42
2024/01/10 09:10:59;;;;;;;57.53;53.38;;;;;;;;;;4993623;28;20263;-42
2024/01/10 09:13:25;;;;;;;55.50;51.37;;;;;;;;;;4992025;28;20255;-43
2024/01/10 09:15:52;;;;;;;55.33;50.67;;;;;;;;;;4992871;28;20424;-42
2024/01/10 09:18:18;;;;;;;59.35;54.63;;;;;;;;;;4994409;28;20202;-43
2024/01/10 09:20:44;;;;;;;54.07;49.67;;;;;;;;;;4990944;28;20181;-43
2024/01/10 09:23:11;;;;;;;50.22;46.33;;;;;;;;;;4994677;28;20512;-42
2024/01/10 09:25:37;;;;;;;49.65;45.80;;;;;;;;;;4985892;28;20288;-42
2024/01/10 09:28:04;;;;;;;50.70;47.00;;;;;;;;;;4995851;28;20280;-42
2024/01/10 09:30:30;;;;;;;49.65;46.15;;;;;;;;;;4987557;28;20183;-43
2024/01/10 09:32:56;;;;;;;49.87;46.23;;;;;;;;;;4994112;28;20267;-42
2024/01/10 09:35:23;;;;;;;58.00;53.77;;;;;;;;;;4993225;28;20408;-43
2024/01/10 09:37:49;;;;;;;50.85;47.30;;;;;;;;;;4995436;28;20420;-43
2024/01/10 09:40:16;;;;;;;46.58;43.47;;;;;;;;;;4993945;28;20181;-43
2024/01/10 09:42:44;;;;;;;54.67;50.72;;;;;;;;;;4994541;28;20181;-44
2024/01/10 09:45:12;;;;;;;56.53;52.83;;;;;;;;;;4995076;28;20213;-43
2024/01/10 09:47:39;;;;;;;55.45;51.75;;;;;;;;;;4994280;28;20569;-44
2024/01/10 09:50:07;;;;;;;50.83;47.63;;;;;;;;;;4995401;28;20639;-43
2024/01/10 09:52:40;;;;;;;48.33;45.47;;;;;;;;;;4994672;28;20621;-43
2024/01/10 09:55:06;;;;;;;46.80;44.13;;;;;;;;;;5012609;28;20172;-43
2024/01/10 09:57:34;;;;;;;43.55;40.95;;;;;;;;;;5001203;28;20182;-43
2024/01/10 10:00:02;;;;;;;44.88;42.25;;;;;;;;;;5004623;28;20188;-44
2024/01/10 10:02:29;;;;;;;47.08;44.38;;;;;;;;;;5007574;28;20536;-43
2024/01/10 10:04:59;;;;;;;40.83;38.63;;;;;;;;;;4996819;28;20683;-43
2024/01/10 10:07:25;;;;;;;37.95;35.95;;;;;;;;;;5014744;28;20180;-43
2024/01/10 10:09:53;;;;;;;39.73;37.57;;;;;;;;;;4996305;28;20199;-43
2024/01/10 10:12:19;;;;;;;48.95;46.15;;;;;;;;;;5009284;28;20414;-43
2024/01/10 10:14:45;;;;;;;43.83;41.40;;;;;;;;;;5003408;28;20610;-43
2024/01/10 10:17:15;;;;;;;45.30;42.90;;;;;;;;;;5001119;28;20180;-43
2024/01/10 10:19:41;;;;;;;39.20;37.10;;;;;;;;;;5011579;28;21646;-43
2024/01/10 10:22:09;;;;;;;40.10;37.97;;;;;;;;;;4994838;28;20258;-43
2024/01/10 10:24:35;;;;;;;35.80;33.90;;;;;;;;;;5012967;28;20865;-44
2024/01/10 10:27:01;;;;;;;29.55;27.88;;;;;;;;;;4999211;28;20220;-43
2024/01/10 10:29:27;;;;;;;31.97;30.17;;;;;;;;;;5005200;28;20208;-44
2024/01/10 10:31:55;;;;;;;57.42;53.05;;;;;;;;;;5005552;28;20408;-43
2024/01/10 10:34:22;;;;;;;34.33;32.55;;;;;;;;;;4996291;28;20291;-42
2024/01/10 10:36:48;;;;;;;34.17;32.38;;;;;;;;;;4998206;28;20220;-43
2024/01/10 10:39:18;;;;;;;41.00;38.92;;;;;;;;;;5012958;28;20202;-42
2024/01/10 10:41:44;;;;;;;34.72;32.88;;;;;;;;;;4998528;28;20184;-42
2024/01/10 10:44:10;;;;;;;23.92;22.55;;;;;;;;;;5004746;28;20252;-43
2024/01/10 10:46:37;;;;;;;18.95;17.70;;;;;;;;;;5000461;28;20187;-43
2024/01/10 10:49:07;;;;;;;21.42;19.83;;;;;;;;;;4990897;28;20179;-44
2024/01/10 10:51:34;;;;;;;23.75;22.35;;;;;;;;;;4993197;28;20199;-43
2024/01/10 10:54:00;;;;;;;28.63;26.92;;;;;;;;;;4993141;28;20198;-43
2024/01/10 10:56:30;;;;;;;28.75;27.15;;;;;;;;;;4993501;28;20188;-43
2024/01/10 10:58:57;;;;;;;29.35;27.55;;;;;;;;;;4988723;28;20201;-43
2024/01/10 11:01:23;;;;;;;36.92;34.92;;;;;;;;;;4993552;28;20554;-43
2024/01/10 11:03:49;;;;;;;41.25;39.08;;;;;;;;;;4989039;28;20207;-44
2024/01/10 11:06:17;;;;;;;41.30;39.10;;;;;;;;;;4991700;28;20251;-43
2024/01/10 11:08:48;;;;;;;39.47;37.33;;;;;;;;;;4974395;28;20216;-44
2024/01/10 11:11:23;;;;;;;40.42;38.42;;;;;;;;;;4990570;28;20259;-44
2024/01/10 11:14:06;;;;;;;36.47;34.47;;;;;;;;;;4979792;28;20197;-44
2024/01/10 11:16:41;;;;;;;45.50;43.15;;;;;;;;;;4991136;28;20183;-44
2024/01/10 11:19:16;;;;;;;39.28;37.25;;;;;;;;;;4985472;28;20213;-44
2024/01/10 11:22:08;;;;;;;38.72;36.72;;;;;;;;;;4988578;28;20550;-43
2024/01/10 11:24:35;;;;;;;43.28;40.95;;;;;;;;;;4985140;28;20620;-43
2024/01/10 11:27:14;;;;;;;34.90;32.90;;;;;;;;;;4990175;28;20196;-44
2024/01/10 11:29:41;;;;;;;37.28;35.20;;;;;;;;;;4986736;28;20177;-44
2024/01/10 11:32:10;;;;;;;38.17;36.00;;;;;;;;;;4990014;28;20192;-44
2024/01/10 11:34:36;;;;;;;40.22;37.97;;;;;;;;;;4991974;28;20200;-43
2024/01/10 11:37:12;;;;;;;40.57;38.27;;;;;;;;;;4991435;28;20188;-43
2024/01/10 11:39:38;;;;;;;44.90;42.33;;;;;;;;;;4984397;28;20551;-44
2024/01/10 11:42:04;;;;;;;44.10;41.50;;;;;;;;;;4977589;28;20312;-46
2024/01/10 11:44:30;;;;;;;39.20;36.90;;;;;;;;;;4987674;28;20447;-45
2024/01/10 11:46:57;;;;;;;40.97;38.72;;;;;;;;;;4992230;28;20253;-45
2024/01/10 11:49:24;;;;;;;41.67;39.28;;;;;;;;;;4992188;28;20180;-44
2024/01/10 11:51:51;;;;;;;42.17;39.88;;;;;;;;;;4991183;28;20177;-44
2024/01/10 11:54:35;;;;;;;44.53;41.72;;;;;;;;;;4985162;28;20209;-44
2024/01/10 11:57:01;;;;;;;39.58;37.42;;;;;;;;;;4987880;28;20183;-43
2024/01/10 11:59:27;;;;;;;43.22;40.88;;;;;;;;;;4991932;28;20247;-44
2024/01/10 12:01:54;;;;;;;46.60;43.85;;;;;;;;;;4987005;28;20261;-43
2024/01/10 12:04:21;;;;;;;48.20;45.25;;;;;;;;;;4986438;28;20739;-44
2024/01/10 12:06:47;;;;;;;47.25;44.40;;;;;;;;;;4988581;28;20183;-44
2024/01/10 12:09:14;;;;;;;41.87;39.43;;;;;;;;;;4990404;28;20660;-43
2024/01/10 12:11:41;;;;;;;43.90;41.53;;;;;;;;;;4983098;28;20416;-43
2024/01/10 12:14:07;;;;;;;43.40;40.90;;;;;;;;;;4988311;28;20668;-44
2024/01/10 12:16:33;;;;;;;43.10;40.70;;;;;;;;;;4992574;28;20679;-44
2024/01/10 12:18:59;;;;;;;49.83;46.93;;;;;;;;;;4986347;28;20207;-43
2024/01/10 12:21:25;;;;;;;45.00;42.37;;;;;;;;;;4992045;28;20419;-43
2024/01/10 12:23:51;;;;;;;42.80;40.23;;;;;;;;;;4991368;28;20428;-43
2024/01/10 12:26:18;;;;;;;39.33;36.73;;;;;;;;;;4985304;28;20417;-43
2024/01/10 12:28:54;;;;;;;45.70;43.15;;;;;;;;;;4975682;28;20423;-43
2024/01/10 12:31:22;;;;;;;45.45;42.65;;;;;;;;;;4992422;28;20243;-42
2024/01/10 12:33:48;;;;;;;48.00;45.08;;;;;;;;;;4979423;28;20193;-43
2024/01/10 12:36:14;;;;;;;51.90;48.67;;;;;;;;;;4990394;28;20189;-43
2024/01/10 12:38:40;;;;;;;46.13;43.53;;;;;;;;;;4977649;28;20197;-41
2024/01/10 12:41:09;;;;;;;45.45;42.72;;;;;;;;;;4988310;28;20185;-42
2024/01/10 12:43:34;;;;;;;55.70;51.97;;;;;;;;;;4987853;28;20184;-43
2024/01/10 12:46:13;;;;;;;51.47;48.30;;;;;;;;;;4990471;28;20688;-43
2024/01/10 12:48:42;;;;;;;49.95;46.70;;;;;;;;;;4972183;28;20413;-43
2024/01/10 12:51:09;;;;;;;54.05;50.65;;;;;;;;;;4986411;28;20587;-44
2024/01/10 12:53:36;;;;;;;50.72;47.35;;;;;;;;;;4985749;28;20204;-43
2024/01/10 12:56:02;;;;;;;52.17;48.92;;;;;;;;;;4981519;28;20695;-43
2024/01/10 12:58:29;;;;;;;52.35;49.05;;;;;;;;;;4976677;28;20307;-44
2024/01/10 13:00:55;;;;;;;49.13;45.67;;;;;;;;;;4989486;28;20276;-43
2024/01/10 13:03:21;;;;;;;53.15;49.45;;;;;;;;;;4971411;28;20185;-43
2024/01/10 13:05:47;;;;;;;66.83;61.50;;;;;;;;;;4987593;28;20177;-43
2024/01/10 13:08:13;;;;;;;56.45;52.50;;;;;;;;;;4976146;28;20928;-42
2024/01/10 13:10:39;;;;;;;53.75;50.03;;;;;;;;;;4981930;28;20665;-43
2024/01/10 13:13:05;;;;;;;52.20;48.63;;;;;;;;;;4985712;28;20197;-42
2024/01/10 13:15:31;;;;;;;54.28;50.67;;;;;;;;;;4973866;28;20252;-42
2024/01/10 13:17:57;;;;;;;49.77;46.40;;;;;;;;;;4991823;28;20256;-41
2024/01/10 13:20:24;;;;;;;50.60;47.03;;;;;;;;;;4974571;28;20418;-42
2024/01/10 13:22:51;;;;;;;49.95;46.50;;;;;;;;;;4984793;28;20412;-42
2024/01/10 13:25:17;;;;;;;54.35;50.70;;;;;;;;;;4987119;28;20208;-43
2024/01/10 13:27:43;;;;;;;56.80;52.60;;;;;;;;;;4989646;28;20187;-44
2024/01/10 13:30:12;;;;;;;56.95;52.90;;;;;;;;;;4990081;28;20161;-44
2024/01/10 13:32:38;;;;;;;60.05;55.80;;;;;;;;;;4971299;28;20228;-44
2024/01/10 13:35:05;;;;;;;51.30;47.90;;;;;;;;;;4988807;28;20177;-44
2024/01/10 13:37:32;;;;;;;51.28;47.95;;;;;;;;;;4981687;28;20416;-44
2024/01/10 13:39:59;;;;;;;53.05;49.45;;;;;;;;;;4984527;28;20200;-43
2024/01/10 13:42:25;;;;;;;50.53;46.95;;;;;;;;;;4988928;28;20170;-43
2024/01/10 13:44:51;;;;;;;49.80;46.53;;;;;;;;;;4975942;28;20215;-44
2024/01/10 13:47:21;;;;;;;46.92;43.85;;;;;;;;;;4995339;28;20427;-44
2024/01/10 13:49:47;;;;;;;52.05;48.60;;;;;;;;;;4978904;28;20657;-45
2024/01/10 13:52:13;;;;;;;50.17;47.05;;;;;;;;;;4990615;28;20550;-44
2024/01/10 13:54:39;;;;;;;46.83;43.88;;;;;;;;;;4986713;28;20308;-44
2024/01/10 13:57:05;;;;;;;45.80;43.00;;;;;;;;;;4982063;28;20191;-44
2024/01/10 13:59:32;;;;;;;48.08;44.78;;;;;;;;;;4994530;28;20455;-44
2024/01/10 14:01:59;;;;;;;48.42;45.20;;;;;;;;;;4976553;28;20716;-44
2024/01/10 14:04:25;;;;;;;53.63;50.10;;;;;;;;;;4975907;28;20193;-43
2024/01/10 14:06:51;;;;;;;52.65;49.30;;;;;;;;;;4989803;28;20565;-44
2024/01/10 14:09:17;;;;;;;52.10;48.58;;;;;;;;;;4985706;28;20570;-44
2024/01/10 14:11:48;;;;;;;50.97;47.33;;;;;;;;;;4982008;28;20181;-44
2024/01/10 14:14:14;;;;;;;57.20;53.03;;;;;;;;;;4993576;28;20189;-43